sensor_id;sensor_type;location;lat;lon;timestamp;temperature;humidity
15262;DHT22;7733;51.554;13.590;2023-05-14T00:02:20;13.30;99.90
15262;DHT22;7733;51.554;13.590;2023-05-14T00:04:46;12.80;99.90
15262;DHT22;7733;51.554;13.590;2023-05-14T00:07:11;12.80;99.90
15262;DHT22;7733;51.554;13.590;2023-05-14T00:09:37;12.70;99.90
15262;DHT22;7733;51.554;13.590;2023-05-14T00:12:03;12.90;99.90
15262;DHT22;7733;51.554;13.590;2023-05-14T00:14:29;12.80;99.90
15262;DHT22;7733;51.554;13.590;2023-05-14T00:16:55;12.80;99.90
15262;DHT22;7733;51.554;13.590;2023-05-14T00:19:21;12.70;99.90
15262;DHT22;7733;51.554;13.590;2023-05-14T00:21:47;12.80;99.90
15262;DHT22;7733;51.554;13.590;2023-05-14T00:24:13;12.90;99.90
15262;DHT22;7733;51.554;13.590;2023-05-14T00:26:39;13.10;99.90
15262;DHT22;7733;51.554;13.590;2023-05-14T00:29:05;13.10;99.90
15262;DHT22;7733;51.554;13.590;2023-05-14T00:31:30;13.10;99.90
15262;DHT22;7733;51.554;13.590;2023-05-14T00:33:56;12.80;99.90
15262;DHT22;7733;51.554;13.590;2023-05-14T00:36:22;12.80;99.90
15262;DHT22;7733;51.554;13.590;2023-05-14T00:38:48;12.70;99.90
15262;DHT22;7733;51.554;13.590;2023-05-14T00:41:14;12.70;99.90
15262;DHT22;7733;51.554;13.590;2023-05-14T00:43:39;12.70;99.90
15262;DHT22;7733;51.554;13.590;2023-05-14T00:46:05;12.70;99.90
15262;DHT22;7733;51.554;13.590;2023-05-14T00:48:31;12.80;99.90
15262;DHT22;7733;51.554;13.590;2023-05-14T00:50:57;12.70;99.90
15262;DHT22;7733;51.554;13.590;2023-05-14T00:53:23;12.80;99.90
15262;DHT22;7733;51.554;13.590;2023-05-14T00:55:49;12.90;99.90
15262;DHT22;7733;51.554;13.590;2023-05-14T00:58:17;12.70;99.90
15262;DHT22;7733;51.554;13.590;2023-05-14T01:00:43;12.50;99.90
15262;DHT22;7733;51.554;13.590;2023-05-14T01:03:09;12.60;99.90
15262;DHT22;7733;51.554;13.590;2023-05-14T01:11:56;12.80;99.90
15262;DHT22;7733;51.554;13.590;2023-05-14T01:17:46;13.20;99.90
15262;DHT22;7733;51.554;13.590;2023-05-14T01:20:16;13.10;99.90
15262;DHT22;7733;51.554;13.590;2023-05-14T01:22:42;12.90;99.90
15262;DHT22;7733;51.554;13.590;2023-05-14T01:25:08;13.00;99.90
15262;DHT22;7733;51.554;13.590;2023-05-14T01:30:31;12.80;99.90
15262;DHT22;7733;51.554;13.590;2023-05-14T01:33:04;12.90;99.90
15262;DHT22;7733;51.554;13.590;2023-05-14T01:35:33;12.80;99.90
15262;DHT22;7733;51.554;13.590;2023-05-14T01:38:01;12.70;99.90
15262;DHT22;7733;51.554;13.590;2023-05-14T01:40:31;12.50;99.90
15262;DHT22;7733;51.554;13.590;2023-05-14T01:42:58;12.50;99.90
15262;DHT22;7733;51.554;13.590;2023-05-14T01:45:25;12.30;99.90
15262;DHT22;7733;51.554;13.590;2023-05-14T01:47:52;12.50;99.90
15262;DHT22;7733;51.554;13.590;2023-05-14T01:50:18;12.40;99.90
15262;DHT22;7733;51.554;13.590;2023-05-14T01:52:44;12.30;99.90
15262;DHT22;7733;51.554;13.590;2023-05-14T01:55:10;12.40;99.90
15262;DHT22;7733;51.554;13.590;2023-05-14T01:57:35;12.40;99.90
15262;DHT22;7733;51.554;13.590;2023-05-14T02:00:01;12.40;99.90
15262;DHT22;7733;51.554;13.590;2023-05-14T02:02:28;12.40;99.90
15262;DHT22;7733;51.554;13.590;2023-05-14T02:04:54;12.40;99.90
15262;DHT22;7733;51.554;13.590;2023-05-14T02:07:19;12.10;99.90
15262;DHT22;7733;51.554;13.590;2023-05-14T02:09:45;12.20;99.90
15262;DHT22;7733;51.554;13.590;2023-05-14T02:12:11;12.10;99.90
15262;DHT22;7733;51.554;13.590;2023-05-14T02:14:37;12.10;99.90
15262;DHT22;7733;51.554;13.590;2023-05-14T02:17:02;11.90;99.90
15262;DHT22;7733;51.554;13.590;2023-05-14T02:19:29;11.80;99.90
15262;DHT22;7733;51.554;13.590;2023-05-14T02:21:54;11.90;99.90
15262;DHT22;7733;51.554;13.590;2023-05-14T02:24:20;12.00;99.90
15262;DHT22;7733;51.554;13.590;2023-05-14T02:26:46;11.90;99.90
15262;DHT22;7733;51.554;13.590;2023-05-14T02:29:12;11.80;99.90
15262;DHT22;7733;51.554;13.590;2023-05-14T02:31:38;11.80;99.90
15262;DHT22;7733;51.554;13.590;2023-05-14T02:34:04;11.90;99.90
15262;DHT22;7733;51.554;13.590;2023-05-14T02:36:33;11.90;99.90
15262;DHT22;7733;51.554;13.590;2023-05-14T02:38:59;11.90;99.90
15262;DHT22;7733;51.554;13.590;2023-05-14T02:41:25;11.80;99.90
15262;DHT22;7733;51.554;13.590;2023-05-14T02:43:52;11.80;99.90
15262;DHT22;7733;51.554;13.590;2023-05-14T02:46:18;11.80;99.90
15262;DHT22;7733;51.554;13.590;2023-05-14T02:48:44;11.90;99.90
15262;DHT22;7733;51.554;13.590;2023-05-14T02:51:10;11.80;99.90
15262;DHT22;7733;51.554;13.590;2023-05-14T02:53:36;11.70;99.90
15262;DHT22;7733;51.554;13.590;2023-05-14T02:56:02;11.70;99.90
15262;DHT22;7733;51.554;13.590;2023-05-14T02:58:28;11.60;99.90
15262;DHT22;7733;51.554;13.590;2023-05-14T03:00:54;11.50;99.90
15262;DHT22;7733;51.554;13.590;2023-05-14T03:03:20;11.50;99.90
15262;DHT22;7733;51.554;13.590;2023-05-14T03:05:46;11.40;99.90
15262;DHT22;7733;51.554;13.590;2023-05-14T03:08:12;11.20;99.90
15262;DHT22;7733;51.554;13.590;2023-05-14T03:10:37;11.20;99.90
15262;DHT22;7733;51.554;13.590;2023-05-14T03:13:03;10.90;99.90
15262;DHT22;7733;51.554;13.590;2023-05-14T03:15:29;11.10;99.90
15262;DHT22;7733;51.554;13.590;2023-05-14T03:17:55;10.80;99.90
15262;DHT22;7733;51.554;13.590;2023-05-14T03:20:23;10.70;99.90
15262;DHT22;7733;51.554;13.590;2023-05-14T03:22:50;10.90;99.90
15262;DHT22;7733;51.554;13.590;2023-05-14T03:25:16;11.00;99.90
15262;DHT22;7733;51.554;13.590;2023-05-14T03:27:42;11.10;99.90
15262;DHT22;7733;51.554;13.590;2023-05-14T03:30:08;10.90;99.90
15262;DHT22;7733;51.554;13.590;2023-05-14T03:32:35;11.10;99.90
15262;DHT22;7733;51.554;13.590;2023-05-14T03:35:01;11.20;99.90
15262;DHT22;7733;51.554;13.590;2023-05-14T03:37:27;11.10;99.90
15262;DHT22;7733;51.554;13.590;2023-05-14T03:39:53;11.10;99.90
15262;DHT22;7733;51.554;13.590;2023-05-14T03:42:19;11.10;99.90
15262;DHT22;7733;51.554;13.590;2023-05-14T03:44:44;11.20;99.90
15262;DHT22;7733;51.554;13.590;2023-05-14T03:47:10;11.30;99.90
15262;DHT22;7733;51.554;13.590;2023-05-14T03:49:36;11.00;99.90
15262;DHT22;7733;51.554;13.590;2023-05-14T03:52:01;10.80;99.90
15262;DHT22;7733;51.554;13.590;2023-05-14T03:54:27;10.70;99.90
15262;DHT22;7733;51.554;13.590;2023-05-14T03:56:53;10.80;99.90
15262;DHT22;7733;51.554;13.590;2023-05-14T03:59:18;10.90;99.90
15262;DHT22;7733;51.554;13.590;2023-05-14T04:01:44;10.60;99.90
15262;DHT22;7733;51.554;13.590;2023-05-14T04:04:10;10.40;99.90
15262;DHT22;7733;51.554;13.590;2023-05-14T04:06:35;10.20;99.90
15262;DHT22;7733;51.554;13.590;2023-05-14T04:09:02;10.20;99.90
15262;DHT22;7733;51.554;13.590;2023-05-14T04:11:28;10.20;99.90
15262;DHT22;7733;51.554;13.590;2023-05-14T04:13:54;10.60;99.90
15262;DHT22;7733;51.554;13.590;2023-05-14T04:16:20;10.30;99.90
15262;DHT22;7733;51.554;13.590;2023-05-14T04:18:45;10.30;99.90
15262;DHT22;7733;51.554;13.590;2023-05-14T04:21:11;10.30;99.90
15262;DHT22;7733;51.554;13.590;2023-05-14T04:23:37;10.40;99.90
15262;DHT22;7733;51.554;13.590;2023-05-14T04:26:03;10.30;99.90
15262;DHT22;7733;51.554;13.590;2023-05-14T04:28:29;10.50;99.90
15262;DHT22;7733;51.554;13.590;2023-05-14T04:30:55;10.60;99.90
15262;DHT22;7733;51.554;13.590;2023-05-14T04:33:21;10.60;99.90
15262;DHT22;7733;51.554;13.590;2023-05-14T04:35:47;10.40;99.90
15262;DHT22;7733;51.554;13.590;2023-05-14T04:38:13;10.70;99.90
15262;DHT22;7733;51.554;13.590;2023-05-14T04:40:39;10.80;99.90
15262;DHT22;7733;51.554;13.590;2023-05-14T04:43:08;10.90;99.90
15262;DHT22;7733;51.554;13.590;2023-05-14T04:45:35;11.10;99.90
15262;DHT22;7733;51.554;13.590;2023-05-14T04:48:02;11.10;99.90
15262;DHT22;7733;51.554;13.590;2023-05-14T04:50:28;11.20;99.90
15262;DHT22;7733;51.554;13.590;2023-05-14T04:52:54;11.10;99.90
15262;DHT22;7733;51.554;13.590;2023-05-14T04:55:20;11.10;99.90
15262;DHT22;7733;51.554;13.590;2023-05-14T04:57:46;11.00;99.90
15262;DHT22;7733;51.554;13.590;2023-05-14T05:00:13;11.20;99.90
15262;DHT22;7733;51.554;13.590;2023-05-14T05:02:40;11.30;99.90
15262;DHT22;7733;51.554;13.590;2023-05-14T05:05:05;11.50;99.90
15262;DHT22;7733;51.554;13.590;2023-05-14T05:07:31;11.40;99.90
15262;DHT22;7733;51.554;13.590;2023-05-14T05:09:57;11.40;99.90
15262;DHT22;7733;51.554;13.590;2023-05-14T05:12:23;11.60;99.90
15262;DHT22;7733;51.554;13.590;2023-05-14T05:14:48;11.80;99.90
15262;DHT22;7733;51.554;13.590;2023-05-14T05:17:14;11.70;99.90
15262;DHT22;7733;51.554;13.590;2023-05-14T05:19:40;11.80;99.90
15262;DHT22;7733;51.554;13.590;2023-05-14T05:22:06;12.00;99.90
15262;DHT22;7733;51.554;13.590;2023-05-14T05:24:31;12.20;99.90
15262;DHT22;7733;51.554;13.590;2023-05-14T05:26:57;12.10;99.90
15262;DHT22;7733;51.554;13.590;2023-05-14T05:29:23;12.30;99.90
15262;DHT22;7733;51.554;13.590;2023-05-14T05:31:49;12.20;99.90
15262;DHT22;7733;51.554;13.590;2023-05-14T05:34:15;12.40;99.90
15262;DHT22;7733;51.554;13.590;2023-05-14T05:36:40;12.60;99.90
15262;DHT22;7733;51.554;13.590;2023-05-14T05:39:06;12.70;99.90
15262;DHT22;7733;51.554;13.590;2023-05-14T05:41:32;12.90;99.90
15262;DHT22;7733;51.554;13.590;2023-05-14T05:43:57;12.90;99.90
15262;DHT22;7733;51.554;13.590;2023-05-14T05:46:23;12.90;99.90
15262;DHT22;7733;51.554;13.590;2023-05-14T05:48:49;13.00;99.90
15262;DHT22;7733;51.554;13.590;2023-05-14T05:51:15;13.00;99.90
15262;DHT22;7733;51.554;13.590;2023-05-14T05:53:40;13.20;99.90
15262;DHT22;7733;51.554;13.590;2023-05-14T05:56:06;13.20;99.90
15262;DHT22;7733;51.554;13.590;2023-05-14T05:58:32;13.30;99.90
15262;DHT22;7733;51.554;13.590;2023-05-14T06:00:58;13.50;99.90
15262;DHT22;7733;51.554;13.590;2023-05-14T06:03:24;13.60;99.90
15262;DHT22;7733;51.554;13.590;2023-05-14T06:05:50;13.70;99.90
15262;DHT22;7733;51.554;13.590;2023-05-14T06:08:17;13.90;99.90
15262;DHT22;7733;51.554;13.590;2023-05-14T06:10:43;14.00;99.90
15262;DHT22;7733;51.554;13.590;2023-05-14T06:13:09;14.10;99.90
15262;DHT22;7733;51.554;13.590;2023-05-14T06:15:35;14.10;99.90
15262;DHT22;7733;51.554;13.590;2023-05-14T06:18:00;14.20;99.90
15262;DHT22;7733;51.554;13.590;2023-05-14T06:20:26;14.30;99.90
15262;DHT22;7733;51.554;13.590;2023-05-14T06:22:52;14.40;99.90
15262;DHT22;7733;51.554;13.590;2023-05-14T06:25:17;14.50;99.90
15262;DHT22;7733;51.554;13.590;2023-05-14T06:27:43;14.60;99.90
15262;DHT22;7733;51.554;13.590;2023-05-14T06:30:09;14.70;99.90
15262;DHT22;7733;51.554;13.590;2023-05-14T06:32:36;14.80;99.90
15262;DHT22;7733;51.554;13.590;2023-05-14T06:35:02;14.90;99.90
15262;DHT22;7733;51.554;13.590;2023-05-14T06:37:28;15.10;99.90
15262;DHT22;7733;51.554;13.590;2023-05-14T06:39:54;15.20;99.90
15262;DHT22;7733;51.554;13.590;2023-05-14T06:42:20;15.30;99.90
15262;DHT22;7733;51.554;13.590;2023-05-14T06:44:45;15.40;99.90
15262;DHT22;7733;51.554;13.590;2023-05-14T06:47:11;15.50;99.90
15262;DHT22;7733;51.554;13.590;2023-05-14T06:49:37;15.50;99.90
15262;DHT22;7733;51.554;13.590;2023-05-14T06:52:04;15.60;99.90
15262;DHT22;7733;51.554;13.590;2023-05-14T06:54:30;15.70;99.90
15262;DHT22;7733;51.554;13.590;2023-05-14T06:56:56;15.60;99.90
15262;DHT22;7733;51.554;13.590;2023-05-14T06:59:22;15.70;99.90
15262;DHT22;7733;51.554;13.590;2023-05-14T07:01:48;15.80;99.90
15262;DHT22;7733;51.554;13.590;2023-05-14T07:04:14;15.90;99.90
15262;DHT22;7733;51.554;13.590;2023-05-14T07:06:39;16.10;99.90
15262;DHT22;7733;51.554;13.590;2023-05-14T07:09:05;16.10;99.90
15262;DHT22;7733;51.554;13.590;2023-05-14T07:11:31;16.20;99.90
15262;DHT22;7733;51.554;13.590;2023-05-14T07:13:58;16.40;99.90
15262;DHT22;7733;51.554;13.590;2023-05-14T07:16:24;16.40;99.90
15262;DHT22;7733;51.554;13.590;2023-05-14T07:18:50;16.50;99.90
15262;DHT22;7733;51.554;13.590;2023-05-14T07:21:16;16.50;99.90
15262;DHT22;7733;51.554;13.590;2023-05-14T07:23:42;16.30;99.90
15262;DHT22;7733;51.554;13.590;2023-05-14T07:26:08;16.60;99.90
15262;DHT22;7733;51.554;13.590;2023-05-14T07:28:34;16.60;99.90
15262;DHT22;7733;51.554;13.590;2023-05-14T07:31:00;16.80;99.90
15262;DHT22;7733;51.554;13.590;2023-05-14T07:33:26;16.90;99.90
15262;DHT22;7733;51.554;13.590;2023-05-14T07:35:52;17.10;99.90
15262;DHT22;7733;51.554;13.590;2023-05-14T07:38:19;17.10;99.90
15262;DHT22;7733;51.554;13.590;2023-05-14T07:40:45;17.20;99.90
15262;DHT22;7733;51.554;13.590;2023-05-14T07:43:11;17.40;99.90
15262;DHT22;7733;51.554;13.590;2023-05-14T07:45:37;17.40;99.90
15262;DHT22;7733;51.554;13.590;2023-05-14T07:48:03;17.50;99.90
15262;DHT22;7733;51.554;13.590;2023-05-14T07:50:30;17.60;99.90
15262;DHT22;7733;51.554;13.590;2023-05-14T07:52:56;17.80;99.90
15262;DHT22;7733;51.554;13.590;2023-05-14T07:55:22;17.90;99.90
15262;DHT22;7733;51.554;13.590;2023-05-14T07:57:48;18.20;98.70
15262;DHT22;7733;51.554;13.590;2023-05-14T08:00:14;18.10;97.90
15262;DHT22;7733;51.554;13.590;2023-05-14T08:02:41;18.30;97.70
15262;DHT22;7733;51.554;13.590;2023-05-14T08:05:08;18.40;96.90
15262;DHT22;7733;51.554;13.590;2023-05-14T08:07:34;18.50;96.70
15262;DHT22;7733;51.554;13.590;2023-05-14T08:10:00;18.80;96.40
15262;DHT22;7733;51.554;13.590;2023-05-14T08:12:26;18.90;95.80
15262;DHT22;7733;51.554;13.590;2023-05-14T08:14:53;19.10;94.90
15262;DHT22;7733;51.554;13.590;2023-05-14T08:17:18;19.20;94.70
15262;DHT22;7733;51.554;13.590;2023-05-14T08:19:44;19.20;93.90
15262;DHT22;7733;51.554;13.590;2023-05-14T08:22:11;19.30;93.70
15262;DHT22;7733;51.554;13.590;2023-05-14T08:24:37;19.60;93.10
15262;DHT22;7733;51.554;13.590;2023-05-14T08:27:03;19.70;92.30
15262;DHT22;7733;51.554;13.590;2023-05-14T08:29:29;19.60;91.30
15262;DHT22;7733;51.554;13.590;2023-05-14T08:31:55;19.80;91.70
15262;DHT22;7733;51.554;13.590;2023-05-14T08:34:21;20.00;90.90
15262;DHT22;7733;51.554;13.590;2023-05-14T08:36:47;19.90;90.70
15262;DHT22;7733;51.554;13.590;2023-05-14T08:39:13;20.00;88.60
15262;DHT22;7733;51.554;13.590;2023-05-14T08:41:39;20.20;88.50
15262;DHT22;7733;51.554;13.590;2023-05-14T08:44:18;20.10;87.00
15262;DHT22;7733;51.554;13.590;2023-05-14T08:46:45;20.20;87.10
15262;DHT22;7733;51.554;13.590;2023-05-14T08:49:42;20.70;86.00
15262;DHT22;7733;51.554;13.590;2023-05-14T08:52:11;20.80;86.50
15262;DHT22;7733;51.554;13.590;2023-05-14T08:54:37;20.50;85.40
15262;DHT22;7733;51.554;13.590;2023-05-14T08:57:05;20.50;86.30
15262;DHT22;7733;51.554;13.590;2023-05-14T08:59:34;20.40;86.30
15262;DHT22;7733;51.554;13.590;2023-05-14T09:02:01;20.30;85.60
15262;DHT22;7733;51.554;13.590;2023-05-14T09:04:30;20.30;85.20
15262;DHT22;7733;51.554;13.590;2023-05-14T09:06:59;20.30;84.70
15262;DHT22;7733;51.554;13.590;2023-05-14T09:09:26;20.40;85.40
15262;DHT22;7733;51.554;13.590;2023-05-14T09:11:53;20.30;84.70
15262;DHT22;7733;51.554;13.590;2023-05-14T09:14:19;20.50;84.90
15262;DHT22;7733;51.554;13.590;2023-05-14T09:16:48;20.70;83.70
15262;DHT22;7733;51.554;13.590;2023-05-14T09:19:15;21.20;84.20
15262;DHT22;7733;51.554;13.590;2023-05-14T09:21:45;21.20;82.90
15262;DHT22;7733;51.554;13.590;2023-05-14T09:24:22;20.90;81.10
15262;DHT22;7733;51.554;13.590;2023-05-14T09:26:55;20.50;82.30
15262;DHT22;7733;51.554;13.590;2023-05-14T09:29:28;20.30;81.90
15262;DHT22;7733;51.554;13.590;2023-05-14T09:31:56;20.40;82.50
15262;DHT22;7733;51.554;13.590;2023-05-14T09:34:23;20.30;82.30
15262;DHT22;7733;51.554;13.590;2023-05-14T09:36:59;20.40;82.10
15262;DHT22;7733;51.554;13.590;2023-05-14T09:39:27;20.30;81.90
15262;DHT22;7733;51.554;13.590;2023-05-14T09:41:53;20.40;81.00
15262;DHT22;7733;51.554;13.590;2023-05-14T09:44:20;20.80;80.60
15262;DHT22;7733;51.554;13.590;2023-05-14T09:46:47;20.90;78.30
15262;DHT22;7733;51.554;13.590;2023-05-14T09:49:13;21.00;79.10
15262;DHT22;7733;51.554;13.590;2023-05-14T09:51:39;21.20;78.20
15262;DHT22;7733;51.554;13.590;2023-05-14T09:54:07;21.50;78.50
15262;DHT22;7733;51.554;13.590;2023-05-14T09:56:34;21.80;77.70
15262;DHT22;7733;51.554;13.590;2023-05-14T09:59:00;21.60;78.50
15262;DHT22;7733;51.554;13.590;2023-05-14T10:01:31;21.90;76.60
15262;DHT22;7733;51.554;13.590;2023-05-14T10:04:02;21.80;77.20
15262;DHT22;7733;51.554;13.590;2023-05-14T10:06:35;21.40;76.60
15262;DHT22;7733;51.554;13.590;2023-05-14T10:09:04;21.20;77.90
15262;DHT22;7733;51.554;13.590;2023-05-14T10:11:36;21.10;77.40
15262;DHT22;7733;51.554;13.590;2023-05-14T10:14:16;21.10;77.70
15262;DHT22;7733;51.554;13.590;2023-05-14T10:16:49;21.60;77.80
15262;DHT22;7733;51.554;13.590;2023-05-14T10:19:17;21.90;75.80
15262;DHT22;7733;51.554;13.590;2023-05-14T10:21:48;22.30;74.70
15262;DHT22;7733;51.554;13.590;2023-05-14T10:24:20;22.00;73.90
15262;DHT22;7733;51.554;13.590;2023-05-14T10:26:47;21.80;74.40
15262;DHT22;7733;51.554;13.590;2023-05-14T10:29:13;21.90;74.50
15262;DHT22;7733;51.554;13.590;2023-05-14T10:32:06;21.80;76.30
15262;DHT22;7733;51.554;13.590;2023-05-14T10:34:40;21.70;75.60
15262;DHT22;7733;51.554;13.590;2023-05-14T10:37:15;21.20;76.20
15262;DHT22;7733;51.554;13.590;2023-05-14T10:42:26;20.90;77.20
15262;DHT22;7733;51.554;13.590;2023-05-14T10:45:11;21.10;76.30
15262;DHT22;7733;51.554;13.590;2023-05-14T10:47:42;21.10;76.80
15262;DHT22;7733;51.554;13.590;2023-05-14T10:50:11;21.30;77.60
15262;DHT22;7733;51.554;13.590;2023-05-14T10:52:42;21.20;76.60
15262;DHT22;7733;51.554;13.590;2023-05-14T10:55:12;21.30;75.50
15262;DHT22;7733;51.554;13.590;2023-05-14T10:57:42;21.30;75.20
15262;DHT22;7733;51.554;13.590;2023-05-14T11:00:10;21.30;75.90
15262;DHT22;7733;51.554;13.590;2023-05-14T11:02:39;21.60;76.40
15262;DHT22;7733;51.554;13.590;2023-05-14T11:05:07;21.80;75.80
15262;DHT22;7733;51.554;13.590;2023-05-14T11:07:37;22.10;73.00
15262;DHT22;7733;51.554;13.590;2023-05-14T11:10:07;21.90;73.30
15262;DHT22;7733;51.554;13.590;2023-05-14T11:12:40;21.80;73.80
15262;DHT22;7733;51.554;13.590;2023-05-14T11:15:09;21.90;73.50
15262;DHT22;7733;51.554;13.590;2023-05-14T11:17:37;21.70;73.70
15262;DHT22;7733;51.554;13.590;2023-05-14T11:20:05;21.50;75.10
15262;DHT22;7733;51.554;13.590;2023-05-14T11:22:36;21.50;74.40
15262;DHT22;7733;51.554;13.590;2023-05-14T11:25:03;21.20;74.60
15262;DHT22;7733;51.554;13.590;2023-05-14T11:27:30;21.20;75.00
15262;DHT22;7733;51.554;13.590;2023-05-14T11:29:58;21.20;75.70
15262;DHT22;7733;51.554;13.590;2023-05-14T11:32:26;21.00;77.20
15262;DHT22;7733;51.554;13.590;2023-05-14T11:34:52;21.00;79.20
15262;DHT22;7733;51.554;13.590;2023-05-14T11:37:18;20.80;81.00
15262;DHT22;7733;51.554;13.590;2023-05-14T11:39:52;20.60;82.90
15262;DHT22;7733;51.554;13.590;2023-05-14T11:42:20;20.20;84.50
15262;DHT22;7733;51.554;13.590;2023-05-14T11:44:48;20.10;85.90
15262;DHT22;7733;51.554;13.590;2023-05-14T11:47:17;19.90;86.60
15262;DHT22;7733;51.554;13.590;2023-05-14T11:49:44;19.70;87.60
15262;DHT22;7733;51.554;13.590;2023-05-14T11:52:11;19.70;87.90
15262;DHT22;7733;51.554;13.590;2023-05-14T11:54:39;19.60;88.90
15262;DHT22;7733;51.554;13.590;2023-05-14T11:57:17;19.80;89.00
15262;DHT22;7733;51.554;13.590;2023-05-14T11:59:45;19.60;90.00
15262;DHT22;7733;51.554;13.590;2023-05-14T12:02:13;19.50;90.10
15262;DHT22;7733;51.554;13.590;2023-05-14T12:04:43;19.50;90.20
15262;DHT22;7733;51.554;13.590;2023-05-14T12:07:15;19.50;90.30
15262;DHT22;7733;51.554;13.590;2023-05-14T12:09:43;19.50;90.80
15262;DHT22;7733;51.554;13.590;2023-05-14T12:12:20;19.30;92.00
15262;DHT22;7733;51.554;13.590;2023-05-14T12:14:47;19.20;91.70
15262;DHT22;7733;51.554;13.590;2023-05-14T12:17:18;19.30;92.00
15262;DHT22;7733;51.554;13.590;2023-05-14T12:19:47;19.20;92.20
15262;DHT22;7733;51.554;13.590;2023-05-14T12:22:17;19.20;92.00
15262;DHT22;7733;51.554;13.590;2023-05-14T12:24:53;19.10;92.00
15262;DHT22;7733;51.554;13.590;2023-05-14T12:27:24;19.40;91.90
15262;DHT22;7733;51.554;13.590;2023-05-14T12:29:58;19.30;92.00
15262;DHT22;7733;51.554;13.590;2023-05-14T12:32:26;19.30;92.30
15262;DHT22;7733;51.554;13.590;2023-05-14T12:34:52;19.30;91.70
15262;DHT22;7733;51.554;13.590;2023-05-14T12:37:18;19.20;91.90
15262;DHT22;7733;51.554;13.590;2023-05-14T12:39:44;19.20;92.00
15262;DHT22;7733;51.554;13.590;2023-05-14T12:42:09;19.10;92.60
15262;DHT22;7733;51.554;13.590;2023-05-14T12:44:35;19.20;92.60
15262;DHT22;7733;51.554;13.590;2023-05-14T12:47:01;19.20;92.40
15262;DHT22;7733;51.554;13.590;2023-05-14T12:49:26;19.30;92.50
15262;DHT22;7733;51.554;13.590;2023-05-14T12:51:52;19.40;92.20
15262;DHT22;7733;51.554;13.590;2023-05-14T12:54:18;19.40;92.20
15262;DHT22;7733;51.554;13.590;2023-05-14T12:56:44;19.60;92.10
15262;DHT22;7733;51.554;13.590;2023-05-14T12:59:10;19.70;92.00
15262;DHT22;7733;51.554;13.590;2023-05-14T13:01:35;19.90;91.40
15262;DHT22;7733;51.554;13.590;2023-05-14T13:04:03;19.80;91.50
15262;DHT22;7733;51.554;13.590;2023-05-14T13:06:29;19.70;91.70
15262;DHT22;7733;51.554;13.590;2023-05-14T13:08:56;19.70;91.10
15262;DHT22;7733;51.554;13.590;2023-05-14T13:11:24;19.80;91.20
15262;DHT22;7733;51.554;13.590;2023-05-14T13:13:51;19.80;90.60
15262;DHT22;7733;51.554;13.590;2023-05-14T13:16:17;19.90;90.80
15262;DHT22;7733;51.554;13.590;2023-05-14T13:18:42;19.70;90.70
15262;DHT22;7733;51.554;13.590;2023-05-14T13:21:08;20.10;88.40
15262;DHT22;7733;51.554;13.590;2023-05-14T13:23:34;20.20;85.70
15262;DHT22;7733;51.554;13.590;2023-05-14T13:26:00;20.20;85.30
15262;DHT22;7733;51.554;13.590;2023-05-14T13:28:25;20.40;85.70
15262;DHT22;7733;51.554;13.590;2023-05-14T13:31:08;20.50;85.60
15262;DHT22;7733;51.554;13.590;2023-05-14T13:33:38;20.60;85.00
15262;DHT22;7733;51.554;13.590;2023-05-14T13:36:06;20.70;83.70
15262;DHT22;7733;51.554;13.590;2023-05-14T13:38:32;20.90;82.60
15262;DHT22;7733;51.554;13.590;2023-05-14T13:40:58;21.00;81.50
15262;DHT22;7733;51.554;13.590;2023-05-14T13:43:31;21.00;80.50
15262;DHT22;7733;51.554;13.590;2023-05-14T13:45:57;21.10;80.20
15262;DHT22;7733;51.554;13.590;2023-05-14T13:48:24;21.00;79.00
15262;DHT22;7733;51.554;13.590;2023-05-14T13:50:50;20.70;79.20
15262;DHT22;7733;51.554;13.590;2023-05-14T13:53:20;20.70;79.30
15262;DHT22;7733;51.554;13.590;2023-05-14T13:55:48;21.00;79.60
15262;DHT22;7733;51.554;13.590;2023-05-14T13:58:14;21.30;78.40
15262;DHT22;7733;51.554;13.590;2023-05-14T14:00:40;21.30;77.40
15262;DHT22;7733;51.554;13.590;2023-05-14T14:03:07;21.50;76.60
15262;DHT22;7733;51.554;13.590;2023-05-14T14:05:34;21.50;77.80
15262;DHT22;7733;51.554;13.590;2023-05-14T14:08:00;21.40;74.50
15262;DHT22;7733;51.554;13.590;2023-05-14T14:10:26;21.30;76.10
15262;DHT22;7733;51.554;13.590;2023-05-14T14:12:52;21.20;77.30
15262;DHT22;7733;51.554;13.590;2023-05-14T14:15:18;21.40;76.60
15262;DHT22;7733;51.554;13.590;2023-05-14T14:17:44;21.50;77.20
15262;DHT22;7733;51.554;13.590;2023-05-14T14:20:10;21.50;76.30
15262;DHT22;7733;51.554;13.590;2023-05-14T14:22:36;21.60;76.30
15262;DHT22;7733;51.554;13.590;2023-05-14T14:25:02;21.80;75.90
15262;DHT22;7733;51.554;13.590;2023-05-14T14:27:28;21.80;75.20
15262;DHT22;7733;51.554;13.590;2023-05-14T14:29:59;21.70;75.40
15262;DHT22;7733;51.554;13.590;2023-05-14T14:32:25;21.80;75.60
15262;DHT22;7733;51.554;13.590;2023-05-14T14:34:50;21.40;76.20
15262;DHT22;7733;51.554;13.590;2023-05-14T14:37:16;21.50;75.40
15262;DHT22;7733;51.554;13.590;2023-05-14T14:39:42;21.80;75.20
15262;DHT22;7733;51.554;13.590;2023-05-14T14:42:07;21.80;75.50
15262;DHT22;7733;51.554;13.590;2023-05-14T14:44:33;21.90;76.10
15262;DHT22;7733;51.554;13.590;2023-05-14T14:46:59;22.00;75.80
15262;DHT22;7733;51.554;13.590;2023-05-14T14:49:25;21.90;75.30
15262;DHT22;7733;51.554;13.590;2023-05-14T14:51:52;21.80;75.70
15262;DHT22;7733;51.554;13.590;2023-05-14T14:54:17;21.70;76.30
15262;DHT22;7733;51.554;13.590;2023-05-14T14:56:43;21.60;76.40
15262;DHT22;7733;51.554;13.590;2023-05-14T14:59:10;21.60;76.50
15262;DHT22;7733;51.554;13.590;2023-05-14T15:01:36;21.60;76.40
15262;DHT22;7733;51.554;13.590;2023-05-14T15:04:01;21.70;76.50
15262;DHT22;7733;51.554;13.590;2023-05-14T15:06:28;21.60;76.40
15262;DHT22;7733;51.554;13.590;2023-05-14T15:08:53;21.30;76.90
15262;DHT22;7733;51.554;13.590;2023-05-14T15:11:19;21.30;76.90
15262;DHT22;7733;51.554;13.590;2023-05-14T15:13:45;21.40;75.80
15262;DHT22;7733;51.554;13.590;2023-05-14T15:16:10;21.60;76.30
15262;DHT22;7733;51.554;13.590;2023-05-14T15:18:37;21.50;76.20
15262;DHT22;7733;51.554;13.590;2023-05-14T15:21:03;21.40;75.80
15262;DHT22;7733;51.554;13.590;2023-05-14T15:23:29;21.30;76.00
15262;DHT22;7733;51.554;13.590;2023-05-14T15:25:55;21.00;77.40
15262;DHT22;7733;51.554;13.590;2023-05-14T15:28:21;20.90;77.40
15262;DHT22;7733;51.554;13.590;2023-05-14T15:30:47;20.70;78.10
15262;DHT22;7733;51.554;13.590;2023-05-14T15:33:12;20.70;78.20
15262;DHT22;7733;51.554;13.590;2023-05-14T15:35:42;20.60;77.90
15262;DHT22;7733;51.554;13.590;2023-05-14T15:38:07;20.50;79.10
15262;DHT22;7733;51.554;13.590;2023-05-14T15:40:33;20.40;79.20
15262;DHT22;7733;51.554;13.590;2023-05-14T15:42:59;20.50;78.80
15262;DHT22;7733;51.554;13.590;2023-05-14T15:45:25;20.40;78.20